createdAt,value
2023-02-12T00:01:54.989Z,95857.03
2023-02-12T00:04:24.105Z,95866.72
2023-02-12T00:06:53.583Z,95869.38
2023-02-12T00:09:22.545Z,95870.50
2023-02-12T00:11:54.227Z,95865.28
2023-02-12T00:14:23.669Z,95868.72
2023-02-12T00:16:52.803Z,95871.56
2023-02-12T00:19:21.779Z,95874.06
2023-02-12T00:21:52.008Z,95869.53
2023-02-12T00:24:21.639Z,95873.56
2023-02-12T00:26:51.617Z,95867.66
2023-02-12T00:29:22.100Z,95863.84
2023-02-12T00:31:51.137Z,95852.19
2023-02-12T00:34:20.287Z,95861.38
2023-02-12T00:36:50.642Z,95854.66
2023-02-12T00:39:20.078Z,95851.78
2023-02-12T00:41:49.640Z,95844.19
2023-02-12T00:44:19.275Z,95846.50
2023-02-12T00:46:50.512Z,95840.91
2023-02-12T00:49:21.377Z,95843.94
2023-02-12T00:51:50.578Z,95843.41
2023-02-12T00:54:20.377Z,95846.03
2023-02-12T00:56:50.614Z,95843.81
2023-02-12T00:59:19.689Z,95847.53
2023-02-12T01:01:50.222Z,95856.69
2023-02-12T01:04:19.782Z,95851.00
2023-02-12T01:06:49.731Z,95844.56
2023-02-12T01:09:19.192Z,95838.81
2023-02-12T01:11:50.706Z,95839.78
2023-02-12T01:14:19.789Z,95844.34
2023-02-12T01:16:50.305Z,95845.53
2023-02-12T01:19:21.324Z,95841.75
2023-02-12T01:21:50.586Z,95839.69
2023-02-12T01:24:19.689Z,95848.91
2023-02-12T01:26:48.733Z,95845.75
2023-02-12T01:29:19.537Z,95831.13
2023-02-12T01:31:50.073Z,95824.03
2023-02-12T01:34:19.691Z,95825.13
2023-02-12T01:36:48.528Z,95808.31
2023-02-12T01:39:18.079Z,95801.19
2023-02-12T01:41:47.584Z,95801.66
2023-02-12T01:44:20.029Z,95804.66
2023-02-12T01:46:52.335Z,95806.56
2023-02-12T01:49:26.673Z,95812.91
2023-02-12T01:52:00.638Z,95811.91
2023-02-12T01:54:32.937Z,95814.09
2023-02-12T01:57:03.393Z,95817.94
2023-02-12T01:59:35.204Z,95814.69
2023-02-12T02:02:06.576Z,95814.25
2023-02-12T02:04:42.387Z,95808.19
2023-02-12T02:07:13.663Z,95799.00
2023-02-12T02:09:43.626Z,95799.06
2023-02-12T02:12:29.920Z,95801.47
2023-02-12T02:15:03.140Z,95790.38
2023-02-12T02:17:53.213Z,95789.66
2023-02-12T02:20:57.031Z,95782.94
2023-02-12T02:23:48.957Z,95796.56
2023-02-12T02:26:49.623Z,95792.94
2023-02-12T02:29:46.862Z,95783.38
2023-02-12T02:32:24.943Z,95779.28
2023-02-12T02:35:00.337Z,95777.84
2023-02-12T02:37:37.151Z,95782.16
2023-02-12T02:40:11.776Z,95779.22
2023-02-12T02:42:48.621Z,95782.63
2023-02-12T02:45:22.486Z,95788.50
2023-02-12T02:47:56.430Z,95787.44
2023-02-12T02:50:29.484Z,95789.53
2023-02-12T02:53:03.814Z,95796.72
2023-02-12T02:55:39.047Z,95790.72
2023-02-12T02:58:14.075Z,95778.25
2023-02-12T03:00:47.696Z,95789.69
2023-02-12T03:03:24.563Z,95797.00
2023-02-12T03:05:58.029Z,95791.53
2023-02-12T03:08:34.462Z,95792.94
2023-02-12T03:11:09.555Z,95794.72
2023-02-12T03:13:43.712Z,95789.81
2023-02-12T03:16:19.864Z,95787.28
2023-02-12T03:18:55.746Z,95777.50
2023-02-12T03:21:31.656Z,95785.09
2023-02-12T03:24:06.531Z,95781.53
2023-02-12T03:26:44.631Z,95775.28
2023-02-12T03:29:14.887Z,95784.41
2023-02-12T03:31:57.728Z,95783.03
2023-02-12T03:34:36.577Z,95771.38
2023-02-12T03:37:11.207Z,95774.00
2023-02-12T03:39:51.690Z,95778.63
2023-02-12T03:42:32.554Z,95772.34
2023-02-12T03:45:06.223Z,95778.25
2023-02-12T03:47:45.535Z,95778.25
2023-02-12T03:50:21.298Z,95766.88
2023-02-12T03:52:52.109Z,95763.09
2023-02-12T03:55:21.702Z,95754.94
2023-02-12T03:57:57.249Z,95763.47
2023-02-12T04:00:28.409Z,95763.09
2023-02-12T04:02:58.293Z,95760.56
2023-02-12T04:05:30.203Z,95752.47
2023-02-12T04:08:00.536Z,95756.25
2023-02-12T04:10:34.424Z,95756.69
2023-02-12T04:13:13.165Z,95766.94
2023-02-12T04:15:58.677Z,95778.25
2023-02-12T04:18:35.731Z,95781.97
2023-02-12T04:21:13.953Z,95785.75
2023-02-12T04:23:51.604Z,95795.91
2023-02-12T04:26:26.123Z,95796.19
2023-02-12T04:29:03.670Z,95798.81
2023-02-12T04:31:40.156Z,95804.38
2023-02-12T04:34:14.926Z,95804.88
2023-02-12T04:36:50.858Z,95808.03
2023-02-12T04:39:24.084Z,95816.81
2023-02-12T04:41:54.232Z,95821.72
2023-02-12T04:44:25.930Z,95831.16
2023-02-12T04:46:55.346Z,95829.88
2023-02-12T04:49:25.215Z,95827.13
2023-02-12T04:51:55.842Z,95832.34
2023-02-12T04:54:26.156Z,95830.41
2023-02-12T04:56:55.902Z,95832.34
2023-02-12T04:59:24.833Z,95838.38
2023-02-12T05:01:54.665Z,95845.50
2023-02-12T05:04:23.717Z,95838.56
2023-02-12T05:06:55.461Z,95843.72
2023-02-12T05:09:24.641Z,95832.31
2023-02-12T05:11:53.639Z,95846.41
2023-02-12T05:14:25.364Z,95850.69
2023-02-12T05:16:55.642Z,95853.75
2023-02-12T05:19:24.833Z,95837.91
2023-02-12T05:21:55.410Z,95840.88
2023-02-12T05:24:24.619Z,95839.25
2023-02-12T05:26:54.434Z,95838.91
2023-02-12T05:29:23.517Z,95843.25
2023-02-12T05:31:52.731Z,95853.00
2023-02-12T05:34:22.081Z,95845.84
2023-02-12T05:36:51.677Z,95840.22
2023-02-12T05:39:22.039Z,95836.84
2023-02-12T05:41:51.195Z,95834.91
2023-02-12T05:44:22.368Z,95844.38
2023-02-12T05:46:51.568Z,95840.88
2023-02-12T05:49:20.525Z,95845.56
2023-02-12T05:51:49.582Z,95850.13
2023-02-12T05:54:18.816Z,95843.88
2023-02-12T05:56:49.769Z,95846.63
2023-02-12T05:59:20.864Z,95852.16
2023-02-12T06:01:53.631Z,95850.78
2023-02-12T06:04:24.943Z,95845.72
2023-02-12T06:07:00.443Z,95845.06
2023-02-12T06:09:30.224Z,95849.16
2023-02-12T06:12:00.756Z,95849.44
2023-02-12T06:14:31.874Z,95858.75
2023-02-12T06:17:01.366Z,95851.09
2023-02-12T06:19:31.003Z,95858.19
2023-02-12T06:22:00.180Z,95857.84
2023-02-12T06:24:29.742Z,95858.53
2023-02-12T06:27:00.296Z,95862.78
2023-02-12T06:29:29.512Z,95862.09
2023-02-12T06:31:58.836Z,95854.53
2023-02-12T06:34:28.201Z,95855.16
2023-02-12T06:36:57.429Z,95860.47
2023-02-12T06:39:26.574Z,95853.09
2023-02-12T06:41:55.675Z,95859.50
2023-02-12T06:44:26.363Z,95850.19
2023-02-12T06:46:56.219Z,95858.19
2023-02-12T06:49:25.218Z,95853.25
2023-02-12T06:51:54.938Z,95852.22
2023-02-12T06:54:25.074Z,95841.25
2023-02-12T06:56:54.535Z,95848.78
2023-02-12T06:59:23.529Z,95841.94
2023-02-12T07:01:54.127Z,95841.41
2023-02-12T07:04:23.849Z,95848.13
2023-02-12T07:06:52.819Z,95847.59
2023-02-12T07:09:22.221Z,95842.09
2023-02-12T07:11:52.361Z,95852.66
2023-02-12T07:14:21.424Z,95851.91
2023-02-12T07:16:50.494Z,95855.66
2023-02-12T07:19:21.700Z,95859.38
2023-02-12T07:21:50.858Z,95859.97
2023-02-12T07:24:19.877Z,95869.31
2023-02-12T07:26:48.893Z,95872.00
2023-02-12T07:29:17.995Z,95857.66
2023-02-12T07:31:47.117Z,95862.47
2023-02-12T07:34:16.392Z,95868.63
2023-02-12T07:36:47.042Z,95867.59
2023-02-12T07:39:16.568Z,95871.75
2023-02-12T07:41:45.745Z,95878.03
2023-02-12T07:44:15.489Z,95874.28
2023-02-12T07:46:48.516Z,95873.53
2023-02-12T07:49:20.313Z,95882.19
2023-02-12T07:51:51.720Z,95879.25
2023-02-12T07:54:21.106Z,95875.56
2023-02-12T07:56:51.405Z,95873.78
2023-02-12T07:59:21.775Z,95859.94
2023-02-12T08:01:53.113Z,95870.22
2023-02-12T08:04:24.778Z,95868.91
2023-02-12T08:06:57.061Z,95880.69
2023-02-12T08:09:28.846Z,95876.53
2023-02-12T08:11:59.218Z,95883.38
2023-02-12T08:14:28.941Z,95896.06
2023-02-12T08:16:58.178Z,95889.88
2023-02-12T08:19:27.542Z,95895.97
2023-02-12T08:21:58.694Z,95898.75
2023-02-12T08:24:27.971Z,95910.84
2023-02-12T08:26:57.641Z,95904.34
2023-02-12T08:29:28.811Z,95915.09
2023-02-12T08:32:00.196Z,95923.13
2023-02-12T08:34:31.680Z,95927.53
2023-02-12T08:37:02.972Z,95933.09
2023-02-12T08:39:32.906Z,95925.06
2023-02-12T08:42:03.007Z,95945.44
2023-02-12T08:44:32.495Z,95943.78
2023-02-12T08:47:01.490Z,95937.03
2023-02-12T08:49:31.682Z,95940.00
2023-02-12T08:52:04.149Z,95929.06
2023-02-12T08:54:33.898Z,95947.19
2023-02-12T08:57:04.777Z,95948.63
2023-02-12T08:59:33.836Z,95949.34
2023-02-12T09:02:04.501Z,95954.09
2023-02-12T09:04:36.123Z,95960.59
2023-02-12T09:07:10.651Z,95959.16
2023-02-12T09:09:40.135Z,95967.72
2023-02-12T09:12:09.361Z,95973.63
2023-02-12T09:14:38.498Z,95972.22
2023-02-12T09:17:08.404Z,95967.00
2023-02-12T09:19:38.275Z,95963.31
2023-02-12T09:22:08.799Z,95970.69
2023-02-12T09:24:39.532Z,95968.50
2023-02-12T09:27:09.848Z,95966.63
2023-02-12T09:29:39.151Z,95972.97
2023-02-12T09:32:09.563Z,95973.31
2023-02-12T09:34:38.868Z,95971.03
2023-02-12T09:37:09.444Z,95971.28
2023-02-12T09:39:38.756Z,95956.78
2023-02-12T09:42:28.799Z,95967.91
2023-02-12T09:45:08.007Z,95978.16
2023-02-12T09:47:44.186Z,95969.03
2023-02-12T09:50:35.004Z,95976.53
2023-02-12T09:53:07.173Z,95974.34
2023-02-12T09:55:37.276Z,95979.69
2023-02-12T09:58:14.371Z,95977.50
2023-02-12T10:00:44.940Z,95986.28
2023-02-12T10:03:17.195Z,95980.44
2023-02-12T10:05:51.834Z,95978.16
2023-02-12T10:08:44.308Z,95979.47
2023-02-12T10:11:44.720Z,95978.97
2023-02-12T10:14:30.963Z,95980.44
2023-02-12T10:17:10.974Z,95985.38
2023-02-12T10:20:02.355Z,95972.03
2023-02-12T10:22:56.098Z,95975.00
2023-02-12T10:25:37.505Z,95971.25
2023-02-12T10:28:14.461Z,95969.97
2023-02-12T10:30:50.100Z,95980.28
2023-02-12T10:33:26.797Z,95973.09
2023-02-12T10:36:05.790Z,95976.69
2023-02-12T10:38:41.389Z,95981.72
2023-02-12T10:41:17.426Z,95973.91
2023-02-12T10:43:46.627Z,95983.06
2023-02-12T10:46:17.397Z,95986.50
2023-02-12T10:48:49.510Z,95983.38
2023-02-12T10:51:39.717Z,95990.06
2023-02-12T10:54:34.331Z,95978.66
2023-02-12T10:57:12.708Z,95980.75
2023-02-12T10:59:42.202Z,95992.22
2023-02-12T11:02:26.816Z,95992.22
2023-02-12T11:05:00.753Z,95988.75
2023-02-12T11:07:30.326Z,95984.50
2023-02-12T11:09:59.526Z,95991.69
2023-02-12T11:12:36.041Z,95984.50
2023-02-12T11:15:15.306Z,95979.94
2023-02-12T11:17:46.607Z,95987.78
2023-02-12T11:20:25.894Z,95995.78
2023-02-12T11:22:57.848Z,96001.97
2023-02-12T11:25:30.129Z,96003.47
2023-02-12T11:28:08.578Z,95997.06
2023-02-12T11:30:37.993Z,95994.13
2023-02-12T11:33:18.749Z,95985.28
2023-02-12T11:35:56.570Z,95992.53
2023-02-12T11:38:33.437Z,95993.00
2023-02-12T11:41:09.629Z,95994.09
2023-02-12T11:43:40.996Z,95985.69
2023-02-12T11:46:10.780Z,95986.00
2023-02-12T11:48:47.752Z,95990.09
2023-02-12T11:51:22.876Z,95986.97
2023-02-12T11:53:54.276Z,95977.44
2023-02-12T11:56:24.489Z,95986.41
2023-02-12T11:58:56.382Z,95990.50
2023-02-12T12:01:31.749Z,95995.75
2023-02-12T12:04:05.985Z,95979.09
2023-02-12T12:06:39.404Z,95993.13
2023-02-12T12:09:16.827Z,95992.53
2023-02-12T12:11:55.916Z,95987.66
2023-02-12T12:14:33.517Z,95992.69
2023-02-12T12:17:25.432Z,96001.88
2023-02-12T12:20:03.842Z,95997.31
2023-02-12T12:22:44.344Z,96003.56
2023-02-12T12:25:24.350Z,96003.69
2023-02-12T12:28:08.645Z,96006.66
2023-02-12T12:31:05.715Z,95997.97
2023-02-12T12:33:42.882Z,96004.13
2023-02-12T12:36:42.924Z,96004.00
2023-02-12T12:39:24.011Z,96012.97
2023-02-12T12:42:14.346Z,96013.84
2023-02-12T12:45:00.912Z,96024.59
2023-02-12T12:47:47.922Z,96023.28
2023-02-12T12:50:28.941Z,96018.56
2023-02-12T12:53:21.198Z,96020.09
2023-02-12T12:56:20.904Z,96020.25
2023-02-12T12:59:04.798Z,96019.41
2023-02-12T13:02:02.189Z,96025.69
2023-02-12T13:05:08.603Z,96011.09
2023-02-12T13:07:52.119Z,96024.22
2023-02-12T13:10:35.687Z,96020.91
2023-02-12T13:13:16.221Z,96023.50
2023-02-12T13:15:53.111Z,96033.25
2023-02-12T13:18:37.224Z,96034.03
2023-02-12T13:21:16.091Z,96041.75
2023-02-12T13:23:52.587Z,96047.19
2023-02-12T13:26:31.572Z,96041.06
2023-02-12T13:29:08.221Z,96052.81
2023-02-12T13:31:46.167Z,96055.84
2023-02-12T13:34:18.099Z,96050.63
2023-02-12T13:36:49.878Z,96053.88
2023-02-12T13:39:29.179Z,96065.00
2023-02-12T13:42:15.940Z,96053.13
2023-02-12T13:44:54.485Z,96055.44
2023-02-12T13:47:34.037Z,96057.19
2023-02-12T13:50:09.114Z,96059.22
2023-02-12T13:52:45.800Z,96061.66
2023-02-12T13:55:25.167Z,96063.19
2023-02-12T13:58:31.064Z,96063.97
2023-02-12T14:01:03.215Z,96067.53
2023-02-12T14:03:34.121Z,96074.72
2023-02-12T14:06:12.636Z,96068.03
2023-02-12T14:08:45.361Z,96079.66
2023-02-12T14:11:17.703Z,96068.53
2023-02-12T14:13:55.483Z,96072.63
2023-02-12T14:16:42.448Z,96081.00
2023-02-12T14:19:40.847Z,96076.25
2023-02-12T14:22:14.677Z,96081.66
2023-02-12T14:24:54.613Z,96090.13
2023-02-12T14:27:29.489Z,96100.31
2023-02-12T14:30:28.282Z,96107.38
2023-02-12T14:33:22.208Z,96102.34
2023-02-12T14:36:19.598Z,96096.78
2023-02-12T14:39:00.670Z,96107.75
2023-02-12T14:41:46.626Z,96113.31
2023-02-12T14:44:47.817Z,96116.44
2023-02-12T14:47:53.901Z,96127.88
2023-02-12T14:50:50.742Z,96120.66
2023-02-12T14:53:31.729Z,96119.19
2023-02-12T14:56:02.614Z,96120.69
2023-02-12T14:58:34.939Z,96121.31
2023-02-12T15:01:05.840Z,96125.25
2023-02-12T15:03:43.526Z,96128.84
2023-02-12T15:06:18.783Z,96127.53
2023-02-12T15:08:54.900Z,96132.75
2023-02-12T15:11:38.626Z,96135.25
2023-02-12T15:14:17.159Z,96144.56
2023-02-12T15:17:00.172Z,96148.00
2023-02-12T15:19:45.205Z,96158.94
2023-02-12T15:22:24.795Z,96168.31
2023-02-12T15:24:54.006Z,96171.25
2023-02-12T15:27:23.647Z,96169.59
2023-02-12T15:29:55.786Z,96170.13
2023-02-12T15:32:27.191Z,96175.66
2023-02-12T15:34:57.819Z,96185.00
2023-02-12T15:37:30.895Z,96185.81
2023-02-12T15:40:06.970Z,96188.75
2023-02-12T15:42:40.709Z,96181.25
2023-02-12T15:45:20.557Z,96188.13
2023-02-12T15:48:01.681Z,96185.31
2023-02-12T15:50:33.104Z,96195.66
2023-02-12T15:53:02.793Z,96202.88
2023-02-12T15:55:40.106Z,96209.56
2023-02-12T15:58:23.396Z,96214.13
2023-02-12T16:00:56.142Z,96221.03
2023-02-12T16:03:27.572Z,96212.69
2023-02-12T16:06:05.110Z,96221.00
2023-02-12T16:08:37.113Z,96230.66
2023-02-12T16:11:14.436Z,96225.41
2023-02-12T16:13:47.651Z,96220.84
2023-02-12T16:16:27.854Z,96226.41
2023-02-12T16:19:07.844Z,96232.97
2023-02-12T16:21:40.135Z,96231.31
2023-02-12T16:24:24.379Z,96241.44
2023-02-12T16:26:54.242Z,96249.81
2023-02-12T16:29:23.470Z,96249.44
2023-02-12T16:32:00.571Z,96261.25
2023-02-12T16:34:32.543Z,96266.13
2023-02-12T16:37:02.105Z,96269.03
2023-02-12T16:40:12.463Z,96272.47
2023-02-12T16:42:58.769Z,96276.88
2023-02-12T16:45:39.387Z,96281.13
2023-02-12T16:48:25.446Z,96280.31
2023-02-12T16:50:57.458Z,96280.94
2023-02-12T16:53:43.983Z,96293.22
2023-02-12T16:56:21.256Z,96288.28
2023-02-12T16:58:52.313Z,96304.00
2023-02-12T17:01:24.770Z,96302.66
2023-02-12T17:03:56.248Z,96309.75
2023-02-12T17:06:28.701Z,96310.88
2023-02-12T17:08:58.565Z,96315.88
2023-02-12T17:11:29.292Z,96321.44
2023-02-12T17:14:05.209Z,96326.63
2023-02-12T17:16:35.075Z,96329.91
2023-02-12T17:19:06.202Z,96331.84
2023-02-12T17:21:39.078Z,96337.72
2023-02-12T17:24:10.401Z,96342.31
2023-02-12T17:26:39.657Z,96349.19
2023-02-12T17:29:08.990Z,96353.59
2023-02-12T17:31:38.455Z,96349.41
2023-02-12T17:34:09.287Z,96351.75
2023-02-12T17:36:39.499Z,96353.72
2023-02-12T17:39:11.605Z,96357.53
2023-02-12T17:41:41.157Z,96367.72
2023-02-12T17:44:11.018Z,96364.28
2023-02-12T17:46:40.369Z,96378.06
2023-02-12T17:49:11.239Z,96372.84
2023-02-12T17:51:40.427Z,96375.00
2023-02-12T17:54:09.676Z,96371.06
2023-02-12T17:56:38.864Z,96375.50
2023-02-12T17:59:07.897Z,96372.06
2023-02-12T18:01:39.989Z,96375.69
2023-02-12T18:04:10.731Z,96368.47
2023-02-12T18:06:39.789Z,96371.91
2023-02-12T18:09:09.448Z,96380.41
2023-02-12T18:11:40.628Z,96379.28
2023-02-12T18:14:09.892Z,96371.88
2023-02-12T18:16:39.221Z,96367.41
2023-02-12T18:19:10.825Z,96374.13
2023-02-12T18:21:40.238Z,96380.78
2023-02-12T18:24:09.962Z,96374.59
2023-02-12T18:26:39.057Z,96376.91
2023-02-12T18:29:08.060Z,96381.75
2023-02-12T18:31:37.333Z,96377.50
2023-02-12T18:34:07.937Z,96378.63
2023-02-12T18:36:39.263Z,96382.72
2023-02-12T18:39:08.369Z,96404.94
2023-02-12T18:41:37.303Z,96393.00
2023-02-12T18:44:06.750Z,96403.44
2023-02-12T18:46:36.425Z,96407.81
2023-02-12T18:49:06.021Z,96412.41
2023-02-12T18:51:37.527Z,96419.59
2023-02-12T18:54:13.404Z,96414.50
2023-02-12T18:56:44.666Z,96414.66
2023-02-12T18:59:15.808Z,96405.81
2023-02-12T19:01:46.619Z,96414.72
2023-02-12T19:04:17.384Z,96421.25
2023-02-12T19:06:48.453Z,96418.00
2023-02-12T19:09:21.789Z,96422.13
2023-02-12T19:11:52.715Z,96432.88
2023-02-12T19:14:24.419Z,96433.16
2023-02-12T19:16:54.061Z,96432.00
2023-02-12T19:19:23.295Z,96425.53
2023-02-12T19:21:52.432Z,96437.44
2023-02-12T19:24:23.259Z,96433.59
2023-02-12T19:26:55.848Z,96430.16
2023-02-12T19:29:25.111Z,96437.50
2023-02-12T19:31:54.767Z,96436.44
2023-02-12T19:34:25.096Z,96436.34
2023-02-12T19:36:54.360Z,96437.31
2023-02-12T19:39:26.374Z,96443.13
2023-02-12T19:41:56.481Z,96445.06
2023-02-12T19:44:27.526Z,96454.97
2023-02-12T19:46:57.109Z,96453.78
2023-02-12T19:49:27.950Z,96462.88
2023-02-12T19:51:57.108Z,96463.16
2023-02-12T19:54:28.963Z,96464.09
2023-02-12T19:56:58.531Z,96471.84
2023-02-12T19:59:28.337Z,96478.84
2023-02-12T20:01:57.612Z,96478.72
2023-02-12T20:04:27.041Z,96476.69
2023-02-12T20:06:56.521Z,96479.44
2023-02-12T20:09:25.837Z,96472.47
2023-02-12T20:11:58.140Z,96476.88
2023-02-12T20:14:27.415Z,96476.59
2023-02-12T20:16:58.734Z,96482.94
2023-02-12T20:19:30.627Z,96472.81
2023-02-12T20:22:01.842Z,96476.75
2023-02-12T20:24:33.204Z,96482.94
2023-02-12T20:27:05.174Z,96486.09
2023-02-12T20:29:34.535Z,96482.41
2023-02-12T20:32:04.112Z,96489.41
2023-02-12T20:34:48.839Z,96481.84
2023-02-12T20:37:20.094Z,96479.66
2023-02-12T20:39:49.563Z,96485.59
2023-02-12T20:42:20.789Z,96490.81
2023-02-12T20:44:49.913Z,96496.31
2023-02-12T20:47:18.994Z,96495.78
2023-02-12T20:49:48.240Z,96497.03
2023-02-12T20:52:18.064Z,96501.69
2023-02-12T20:54:48.054Z,96504.16
2023-02-12T20:57:17.315Z,96515.00
2023-02-12T20:59:50.441Z,96512.69
2023-02-12T21:02:19.659Z,96513.22
2023-02-12T21:04:51.965Z,96518.44
2023-02-12T21:07:20.585Z,96506.47
2023-02-12T21:09:50.409Z,96510.34
2023-02-12T21:12:19.780Z,96515.81
2023-02-12T21:14:49.964Z,96516.94
2023-02-12T21:17:20.462Z,96516.38
2023-02-12T21:19:49.260Z,96517.19
2023-02-12T21:22:18.022Z,96511.28
2023-02-12T21:24:50.757Z,96526.94
2023-02-12T21:27:19.462Z,96527.50
2023-02-12T21:29:49.595Z,96527.06
2023-02-12T21:32:18.495Z,96532.84
2023-02-12T21:34:48.946Z,96530.81
2023-02-12T21:37:17.696Z,96537.50
2023-02-12T21:39:46.374Z,96544.25
2023-02-12T21:42:15.038Z,96546.72
2023-02-12T21:44:43.641Z,96543.97
2023-02-12T21:47:13.928Z,96557.03
2023-02-12T21:49:43.212Z,96558.25
2023-02-12T21:52:12.047Z,96562.63
2023-02-12T21:54:40.664Z,96564.56
2023-02-12T21:57:09.341Z,96560.16
2023-02-12T21:59:37.989Z,96552.91
2023-02-12T22:02:07.141Z,96551.13
2023-02-12T22:04:37.275Z,96560.03
2023-02-12T22:07:08.555Z,96563.59
2023-02-12T22:09:37.167Z,96570.06
2023-02-12T22:12:06.026Z,96564.69
2023-02-12T22:14:34.637Z,96576.38
2023-02-12T22:17:03.239Z,96571.41
2023-02-12T22:19:31.931Z,96571.69
2023-02-12T22:22:01.915Z,96575.41
2023-02-12T22:24:31.333Z,96579.94
2023-02-12T22:27:00.033Z,96576.34
2023-02-12T22:29:28.796Z,96579.81
2023-02-12T22:31:57.492Z,96581.16
2023-02-12T22:34:26.754Z,96572.81
2023-02-12T22:36:55.331Z,96578.28
2023-02-12T22:39:25.302Z,96575.53
2023-02-12T22:41:54.466Z,96581.72
2023-02-12T22:44:23.796Z,96576.94
2023-02-12T22:46:53.069Z,96578.28
2023-02-12T22:49:21.666Z,96576.75
2023-02-12T22:51:51.048Z,96582.66
2023-02-12T22:54:20.780Z,96583.75
2023-02-12T22:56:52.984Z,96583.75
2023-02-12T22:59:22.249Z,96585.28
2023-02-12T23:01:50.970Z,96592.00
2023-02-12T23:04:23.102Z,96583.50
2023-02-12T23:06:52.016Z,96589.28
2023-02-12T23:09:20.587Z,96585.00
2023-02-12T23:11:50.502Z,96596.91
2023-02-12T23:14:21.804Z,96592.41
2023-02-12T23:16:50.634Z,96594.44
2023-02-12T23:19:19.313Z,96592.66
2023-02-12T23:21:48.514Z,96593.66
2023-02-12T23:24:17.693Z,96602.13
2023-02-12T23:26:46.469Z,96601.06
2023-02-12T23:29:15.212Z,96598.16
2023-02-12T23:31:45.217Z,96594.06
2023-02-12T23:34:13.824Z,96604.50
2023-02-12T23:36:42.366Z,96604.59
2023-02-12T23:39:12.860Z,96605.69
2023-02-12T23:41:44.114Z,96603.53
2023-02-12T23:44:12.997Z,96601.03
2023-02-12T23:46:41.646Z,96591.56
2023-02-12T23:49:12.292Z,96595.00
2023-02-12T23:51:40.858Z,96599.38
2023-02-12T23:54:09.513Z,96598.66
2023-02-12T23:56:39.356Z,96595.38
2023-02-12T23:59:08.016Z,96598.53
